Time;durP1;ratioP1;P1;durP2;ratioP2;P2;SDS_P1;SDS_P2;PMS_P1;PMS_P2;Temp;Humidity;BMP_temperature;BMP_pressure;BME280_temperature;BME280_humidity;BME280_pressure;Samples;Min_cycle;Max_cycle;Signal;HPM_P1;HPM_P2
2023/03/25 00:01:03;;;;;;;9.88;2.20;;;;;;;9.13;87.48;100163.59;5033610;28;20037;-68
2023/03/25 00:03:32;;;;;;;13.27;2.60;;;;;;;9.18;86.97;100166.25;5033596;28;20064;-68
2023/03/25 00:06:01;;;;;;;10.52;2.40;;;;;;;9.19;87.11;100168.00;5033480;28;20035;-68
2023/03/25 00:08:26;;;;;;;6.57;2.10;;;;;;;9.20;87.05;100172.41;5033635;28;20041;-67
2023/03/25 00:10:55;;;;;;;9.60;2.42;;;;;;;9.21;86.12;100167.16;5033318;28;20025;-67
2023/03/25 00:13:22;;;;;;;8.65;2.45;;;;;;;9.23;85.89;100173.31;5033381;28;20079;-68
2023/03/25 00:15:48;;;;;;;7.57;2.50;;;;;;;9.24;85.78;100168.91;5033267;28;20029;-68
2023/03/25 00:18:17;;;;;;;7.25;2.33;;;;;;;9.25;86.18;100170.69;5033633;28;20030;-68
2023/03/25 00:20:44;;;;;;;11.52;2.22;;;;;;;9.22;85.95;100173.31;5033280;28;20120;-69
2023/03/25 00:23:11;;;;;;;7.82;2.03;;;;;;;9.27;85.01;100171.56;5033182;28;20029;-68
2023/03/25 00:25:36;;;;;;;7.10;2.40;;;;;;;9.22;85.48;100168.91;5033464;28;20042;-68
2023/03/25 00:28:02;;;;;;;6.85;2.20;;;;;;;9.24;85.30;100169.78;5033092;28;20499;-68
2023/03/25 00:30:27;;;;;;;6.00;2.10;;;;;;;9.22;85.30;100152.22;5031912;28;20123;-67
2023/03/25 00:32:52;;;;;;;7.28;2.40;;;;;;;9.23;85.15;100156.59;5033158;28;20029;-68
2023/03/25 00:35:22;;;;;;;8.30;2.20;;;;;;;9.17;85.26;100151.31;5033121;28;20459;-68
2023/03/25 00:37:58;;;;;;;9.25;2.22;;;;;;;9.13;85.12;100158.31;5033109;28;20052;-69
2023/03/25 00:40:33;;;;;;;6.28;2.13;;;;;;;9.14;85.11;100152.16;5033100;28;20029;-67
2023/03/25 00:43:00;;;;;;;7.70;2.00;;;;;;;9.13;85.11;100153.06;5033031;28;20160;-66
2023/03/25 00:45:26;;;;;;;11.82;2.70;;;;;;;9.12;84.92;100153.94;5032941;28;20542;-67
2023/03/25 00:47:51;;;;;;;10.27;2.00;;;;;;;9.11;85.04;100160.03;5033043;28;20117;-66
2023/03/25 00:50:17;;;;;;;10.27;2.83;;;;;;;9.11;84.34;100144.22;5032967;28;20069;-67
2023/03/25 00:52:42;;;;;;;5.80;2.03;;;;;;;9.17;84.36;100160.09;5032614;28;20045;-67
2023/03/25 00:55:08;;;;;;;7.38;2.42;;;;;;;9.11;84.67;100160.03;5032776;28;20029;-68
2023/03/25 00:57:34;;;;;;;13.52;2.45;;;;;;;9.14;84.14;100160.06;5032808;28;20044;-67
2023/03/25 00:59:59;;;;;;;7.93;2.20;;;;;;;9.12;84.41;100158.28;5032828;28;20129;-67
2023/03/25 01:02:25;;;;;;;5.47;1.85;;;;;;;9.13;84.18;100165.34;5032863;28;20096;-68
2023/03/25 01:04:50;;;;;;;8.13;2.10;;;;;;;9.11;84.43;100153.91;5033574;28;20029;-68
2023/03/25 01:07:18;;;;;;;14.95;2.50;;;;;;;9.09;85.02;100153.03;5036861;28;20091;-68
2023/03/25 01:09:46;;;;;;;5.40;2.10;;;;;;;9.10;84.91;100160.06;5036790;28;20383;-68
2023/03/25 01:12:15;;;;;;;4.15;1.90;;;;;;;9.10;84.99;100162.69;5036697;28;20034;-67
2023/03/25 01:14:44;;;;;;;7.90;2.30;;;;;;;9.07;85.02;100163.53;5036687;28;20026;-68
2023/03/25 01:17:10;;;;;;;7.30;2.25;;;;;;;9.06;85.08;100160.91;5018735;28;20405;-67
2023/03/25 01:19:35;;;;;;;8.20;2.30;;;;;;;9.05;84.68;100162.66;5036647;28;20112;-67
2023/03/25 01:22:01;;;;;;;8.88;2.20;;;;;;;9.03;85.12;100151.22;5036527;28;20033;-66
2023/03/25 01:24:26;;;;;;;7.43;2.10;;;;;;;9.03;84.95;100167.03;5036671;28;20383;-67
2023/03/25 01:26:52;;;;;;;6.30;2.17;;;;;;;9.01;85.69;100150.34;5036511;28;20029;-67
2023/03/25 01:29:19;;;;;;;6.15;2.65;;;;;;;8.99;84.63;100176.69;5035556;28;20030;-67
2023/03/25 01:31:45;;;;;;;7.28;2.20;;;;;;;9.01;85.14;100150.34;5036347;28;20067;-68
2023/03/25 01:34:11;;;;;;;6.88;2.42;;;;;;;8.99;85.39;100158.25;5036405;28;20026;-68
2023/03/25 01:36:38;;;;;;;12.70;2.60;;;;;;;9.01;85.15;100152.97;5036272;28;20456;-67
2023/03/25 01:39:05;;;;;;;5.82;2.28;;;;;;;8.96;85.65;100155.59;5036104;28;20064;-69
2023/03/25 01:41:32;;;;;;;4.85;2.17;;;;;;;8.98;85.73;100158.22;5036077;28;20021;-67
2023/03/25 01:44:05;;;;;;;6.55;2.10;;;;;;;8.94;85.47;100159.94;5036195;28;20508;-68
2023/03/25 01:46:31;;;;;;;5.32;2.10;;;;;;;8.92;86.08;100164.34;5036274;28;20033;-66
2023/03/25 01:48:59;;;;;;;5.93;2.13;;;;;;;8.93;86.61;100165.22;5035959;28;20033;-67
2023/03/25 01:51:30;;;;;;;4.25;1.90;;;;;;;8.91;86.83;100167.84;5018135;28;20111;-67
2023/03/25 01:53:56;;;;;;;5.47;2.35;;;;;;;8.85;87.49;100157.25;5035948;28;20228;-67
2023/03/25 01:56:29;;;;;;;5.28;2.38;;;;;;;8.83;87.05;100161.66;5035852;28;20156;-68
2023/03/25 01:59:00;;;;;;;5.93;1.95;;;;;;;8.80;87.54;100143.19;5036091;28;20022;-67
2023/03/25 02:01:25;;;;;;;6.65;2.28;;;;;;;8.82;87.25;100145.81;5035854;28;20167;-66
2023/03/25 02:03:53;;;;;;;5.25;2.20;;;;;;;8.77;87.47;100137.88;5035917;28;20053;-67
2023/03/25 02:06:25;;;;;;;5.30;1.98;;;;;;;8.80;86.46;100156.34;5035754;28;20092;-67
2023/03/25 02:08:53;;;;;;;6.82;2.03;;;;;;;8.76;87.13;100139.63;5035906;28;20021;-67
2023/03/25 02:11:19;;;;;;;5.20;2.03;;;;;;;8.74;86.62;100136.13;5035707;28;20471;-67
2023/03/25 02:13:45;;;;;;;6.72;2.10;;;;;;;8.81;86.34;100147.56;5035634;28;20048;-67
2023/03/25 02:16:35;;;;;;;4.38;2.03;;;;;;;8.76;86.63;100151.94;5035312;28;20083;-68
2023/03/25 02:19:01;;;;;;;4.43;1.80;;;;;;;8.72;87.49;100151.03;5035924;28;20033;-67
2023/03/25 02:22:10;;;;;;;5.80;2.10;;;;;;;8.71;88.33;100132.59;5035377;28;20088;-67
2023/03/25 02:25:00;;;;;;;7.82;2.20;;;;;;;8.68;88.54;100130.81;5035399;28;20026;-67
2023/03/25 02:27:47;;;;;;;7.20;2.20;;;;;;;8.70;88.41;100144.00;5035472;28;20547;-68
2023/03/25 02:30:21;;;;;;;5.05;2.10;;;;;;;8.67;88.68;100122.91;5035286;28;20021;-66
2023/03/25 02:33:20;;;;;;;7.82;2.00;;;;;;;8.62;89.20;100136.03;5035271;28;20159;-66
2023/03/25 02:36:23;;;;;;;6.35;1.90;;;;;;;8.65;88.30;100135.16;5035496;28;20112;-67
2023/03/25 02:38:58;;;;;;;8.70;2.50;;;;;;;8.65;88.04;100128.16;5035003;28;20037;-67
2023/03/25 02:41:35;;;;;;;5.40;2.00;;;;;;;8.61;88.68;100139.56;5035205;28;20060;-67
2023/03/25 02:44:10;;;;;;;10.23;2.10;;;;;;;8.61;88.51;100134.28;5017351;28;20037;-67
2023/03/25 02:46:40;;;;;;;7.13;2.15;;;;;;;8.60;88.18;100144.78;5035008;28;20478;-68
2023/03/25 02:49:19;;;;;;;7.75;2.30;;;;;;;8.57;88.16;100127.22;5035023;28;20040;-67
2023/03/25 02:51:55;;;;;;;7.03;2.10;;;;;;;8.58;88.57;100141.28;5034714;28;20049;-67
2023/03/25 02:54:24;;;;;;;7.80;2.08;;;;;;;8.49;88.62;100110.50;5034827;28;20025;-67
2023/03/25 02:56:56;;;;;;;10.35;2.30;;;;;;;8.55;89.50;100130.72;5034996;28;20138;-68
2023/03/25 02:59:24;;;;;;;7.82;2.10;;;;;;;8.51;89.81;100119.28;5034893;28;20033;-67
2023/03/25 03:01:57;;;;;;;4.97;2.10;;;;;;;8.47;90.35;100122.75;5068276;22;20511;-68
2023/03/25 03:04:23;;;;;;;6.57;2.20;;;;;;;8.47;90.70;100126.25;5074749;28;20048;-68
2023/03/25 03:06:48;;;;;;;8.38;2.60;;;;;;;8.43;91.37;100137.63;5074565;28;20078;-69
2023/03/25 03:09:55;;;;;;;7.22;2.17;;;;;;;8.42;91.85;100127.97;5074486;28;20028;-68
2023/03/25 03:12:23;;;;;;;8.45;2.92;;;;;;;8.40;93.10;100126.22;5071989;28;20044;-69
2023/03/25 03:15:16;;;;;;;6.80;2.30;;;;;;;8.39;93.18;100124.44;5074603;28;20086;-68
2023/03/25 03:18:14;;;;;;;7.72;2.25;;;;;;;8.37;93.26;100113.91;5074542;28;20067;-68
2023/03/25 03:20:59;;;;;;;8.27;2.40;;;;;;;8.35;94.03;100122.59;5074241;28;20051;-69
2023/03/25 03:23:32;;;;;;;7.35;2.20;;;;;;;8.35;93.80;100125.25;5073949;28;20029;-69
2023/03/25 03:26:10;;;;;;;9.23;2.30;;;;;;;8.32;94.83;100114.72;5074314;28;20028;-69
2023/03/25 03:29:06;;;;;;;8.13;2.50;;;;;;;8.31;94.94;100110.28;5073449;28;20480;-69
2023/03/25 03:32:12;;;;;;;5.93;2.17;;;;;;;8.37;93.56;100118.28;5060243;28;20493;-69
2023/03/25 03:34:45;;;;;;;8.38;2.50;;;;;;;8.31;94.86;100118.19;5033667;28;20102;-69
2023/03/25 03:37:14;;;;;;;10.40;2.28;;;;;;;8.33;94.10;100119.09;5073908;28;20028;-69
2023/03/25 03:39:42;;;;;;;9.05;2.25;;;;;;;8.32;94.01;100128.75;5073740;28;20021;-69
2023/03/25 03:42:29;;;;;;;10.70;2.50;;;;;;;8.36;93.31;100121.78;5074160;28;20024;-69
2023/03/25 03:45:01;;;;;;;11.55;2.60;;;;;;;8.37;93.17;100113.03;5073791;28;20085;-69
2023/03/25 03:47:37;;;;;;;8.23;2.53;;;;;;;8.43;92.18;100120.97;5055840;28;20491;-69
2023/03/25 03:50:13;;;;;;;10.73;2.33;;;;;;;8.42;92.17;100129.72;5055846;28;20369;-69
2023/03/25 03:52:49;;;;;;;11.15;2.20;;;;;;;8.42;91.97;100114.81;5073362;28;20392;-69
2023/03/25 03:55:22;;;;;;;8.63;2.38;;;;;;;8.38;92.66;100106.88;5056354;28;20024;-70
2023/03/25 03:57:59;;;;;;;7.40;2.17;;;;;;;8.37;93.24;100107.75;5055559;28;20028;-69
2023/03/25 04:00:35;;;;;;;10.45;2.50;;;;;;;8.34;92.91;100108.56;5073467;28;20559;-69
2023/03/25 04:03:05;;;;;;;14.13;3.08;;;;;;;8.30;93.06;100125.22;5073276;28;20045;-69
2023/03/25 04:05:33;;;;;;;12.88;2.40;;;;;;;8.32;92.47;100107.69;5073800;28;20130;-69
2023/03/25 04:08:20;;;;;;;8.48;2.53;;;;;;;8.29;92.69;100124.34;5073606;28;20063;-69
2023/03/25 04:10:57;;;;;;;8.45;2.30;;;;;;;8.32;92.56;100127.88;5073455;28;20055;-68
2023/03/25 04:13:27;;;;;;;12.25;2.47;;;;;;;8.32;92.18;100117.34;5073622;28;20055;-69
2023/03/25 04:15:52;;;;;;;9.13;2.40;;;;;;;8.30;92.52;100119.94;5073283;28;20036;-69
2023/03/25 04:18:22;;;;;;;9.40;2.25;;;;;;;8.32;92.52;100125.25;5073164;28;20071;-68
2023/03/25 04:20:48;;;;;;;8.40;2.15;;;;;;;8.31;92.14;100113.84;5055148;28;20075;-68
2023/03/25 04:23:15;;;;;;;7.25;2.10;;;;;;;8.27;92.48;100102.41;5054964;28;20477;-69
2023/03/25 04:25:48;;;;;;;10.07;2.35;;;;;;;8.24;93.01;100122.53;5055565;28;20086;-69
2023/03/25 04:28:16;;;;;;;7.90;2.22;;;;;;;8.24;92.14;100119.91;5055197;28;20499;-68
2023/03/25 04:30:44;;;;;;;11.15;2.55;;;;;;;8.22;93.20;100122.53;5073033;28;20395;-69
2023/03/25 04:33:10;;;;;;;8.98;2.20;;;;;;;8.26;92.78;100119.06;5073109;28;20025;-66
2023/03/25 04:35:36;;;;;;;6.75;1.95;;;;;;;8.22;92.53;100114.66;5072925;28;20377;-66
2023/03/25 04:38:02;;;;;;;9.38;2.20;;;;;;;8.22;92.39;100124.25;5072972;28;20504;-66
2023/03/25 04:40:28;;;;;;;8.75;2.20;;;;;;;8.20;92.70;100124.25;5072965;28;20055;-66
2023/03/25 04:42:55;;;;;;;7.00;2.15;;;;;;;8.21;93.24;100125.13;5055670;28;20029;-68
2023/03/25 04:45:21;;;;;;;7.85;2.00;;;;;;;8.22;93.16;100129.53;5074422;28;20470;-68
2023/03/25 04:47:52;;;;;;;7.22;2.22;;;;;;;8.18;92.58;100126.00;5073612;28;20099;-68
2023/03/25 04:50:24;;;;;;;5.43;2.10;;;;;;;8.22;92.92;100129.53;5073450;28;20123;-68
2023/03/25 04:52:51;;;;;;;10.40;2.30;;;;;;;8.19;93.79;100125.13;5054794;28;20275;-68
2023/03/25 04:55:18;;;;;;;9.50;2.25;;;;;;;8.13;94.81;100122.44;5072875;28;20119;-69
2023/03/25 04:57:48;;;;;;;7.70;2.15;;;;;;;8.09;95.97;100123.28;5072719;28;20400;-69
2023/03/25 05:00:19;;;;;;;8.75;2.45;;;;;;;8.08;96.20;100118.88;5072706;28;20035;-69
2023/03/25 05:02:47;;;;;;;12.23;2.45;;;;;;;8.07;96.06;100127.66;5072491;28;20366;-69
2023/03/25 05:05:17;;;;;;;6.78;1.90;;;;;;;8.07;95.88;100118.88;5072655;28;20539;-69
2023/03/25 05:07:54;;;;;;;5.90;2.25;;;;;;;8.04;96.25;100123.22;5073058;28;20029;-69
2023/03/25 05:10:22;;;;;;;6.40;2.13;;;;;;;8.02;96.02;100122.34;5072790;28;20029;-69
2023/03/25 05:12:47;;;;;;;8.60;2.53;;;;;;;8.02;96.08;100121.47;5072632;28;20541;-69
2023/03/25 05:15:16;;;;;;;6.07;2.03;;;;;;;8.01;96.74;100120.59;5072529;28;20044;-69
2023/03/25 05:17:42;;;;;;;7.47;1.92;;;;;;;8.02;96.58;100121.47;5072728;28;20029;-69
2023/03/25 05:20:09;;;;;;;8.20;2.25;;;;;;;8.02;96.80;100124.97;5072604;28;20033;-69
2023/03/25 05:22:36;;;;;;;6.80;2.00;;;;;;;8.01;97.40;100122.34;5072232;28;20473;-70
2023/03/25 05:25:05;;;;;;;6.85;2.10;;;;;;;8.04;96.81;100127.63;5072371;28;20389;-69
2023/03/25 05:27:32;;;;;;;7.45;2.08;;;;;;;8.02;96.65;100126.72;5072824;28;20037;-70
2023/03/25 05:29:58;;;;;;;7.75;2.13;;;;;;;8.06;95.65;100140.81;5072602;28;20028;-69
2023/03/25 05:32:32;;;;;;;8.15;2.30;;;;;;;8.06;96.04;100133.78;5072507;28;20029;-69
2023/03/25 05:34:58;;;;;;;8.10;2.10;;;;;;;8.07;95.47;100130.28;5072474;28;20083;-69
2023/03/25 05:37:23;;;;;;;9.20;2.47;;;;;;;8.09;95.10;100140.81;5072323;28;20036;-69
2023/03/25 05:39:50;;;;;;;10.65;2.38;;;;;;;8.09;94.69;100131.16;5054460;28;20100;-69
2023/03/25 05:42:16;;;;;;;7.40;2.38;;;;;;;8.14;93.98;100131.22;5072384;28;20055;-69
2023/03/25 05:44:49;;;;;;;4.60;1.77;;;;;;;8.16;94.04;100130.34;5072436;28;20513;-69
2023/03/25 05:47:20;;;;;;;7.32;2.45;;;;;;;8.15;93.31;100147.03;5072279;28;20083;-69
2023/03/25 05:49:47;;;;;;;6.00;2.28;;;;;;;8.15;93.72;100143.50;5072598;28;20040;-69
2023/03/25 05:52:12;;;;;;;8.35;2.13;;;;;;;8.17;92.92;100132.13;5074668;28;20025;-69
2023/03/25 05:54:40;;;;;;;9.00;2.78;;;;;;;8.17;92.13;100134.75;5076084;28;20024;-68
2023/03/25 05:57:07;;;;;;;8.38;2.33;;;;;;;8.19;92.10;100143.56;5076107;28;20179;-68
2023/03/25 05:59:33;;;;;;;7.82;2.25;;;;;;;8.20;91.75;100147.06;5076063;28;20028;-69
2023/03/25 06:01:59;;;;;;;15.48;2.67;;;;;;;8.22;91.26;100153.22;5075756;28;20389;-68
2023/03/25 06:04:24;;;;;;;7.05;2.05;;;;;;;8.23;91.68;100152.38;5075459;28;20060;-68
2023/03/25 06:06:50;;;;;;;8.82;2.40;;;;;;;8.22;91.28;100162.00;5075861;28;20400;-68
2023/03/25 06:09:16;;;;;;;8.15;2.20;;;;;;;8.20;90.66;100169.00;5075694;28;20098;-68
2023/03/25 06:11:42;;;;;;;8.25;2.10;;;;;;;8.24;90.57;100167.28;5057834;28;20443;-68
2023/03/25 06:14:08;;;;;;;9.60;2.08;;;;;;;8.25;89.96;100172.53;5081084;28;20056;-68
2023/03/25 06:16:34;;;;;;;7.65;2.10;;;;;;;8.22;89.86;100164.66;5079974;28;20032;-68
2023/03/25 06:19:00;;;;;;;8.25;2.20;;;;;;;8.20;90.19;100160.22;5076454;28;20035;-68
2023/03/25 06:21:33;;;;;;;10.95;2.30;;;;;;;8.17;90.39;100165.44;5075856;28;20358;-68
2023/03/25 06:24:02;;;;;;;12.32;2.05;;;;;;;8.14;90.06;100166.31;5075637;28;20074;-68
2023/03/25 06:26:28;;;;;;;9.55;2.30;;;;;;;8.17;89.57;100155.78;5075338;28;20032;-68
2023/03/25 06:28:54;;;;;;;8.07;2.45;;;;;;;8.18;89.87;100162.84;5075170;28;20474;-68
2023/03/25 06:31:25;;;;;;;12.02;2.65;;;;;;;8.16;89.40;100164.56;5075465;28;20039;-68
2023/03/25 06:33:50;;;;;;;8.23;2.50;;;;;;;8.17;89.05;100155.78;5075479;28;20060;-68
2023/03/25 06:36:17;;;;;;;13.65;2.60;;;;;;;8.17;88.99;100161.06;5075196;28;20060;-68
2023/03/25 06:38:44;;;;;;;9.68;2.28;;;;;;;8.18;89.14;100162.84;5075106;28;20036;-68
2023/03/25 06:41:10;;;;;;;9.50;2.40;;;;;;;8.24;88.78;100167.28;5075108;28;20025;-68
2023/03/25 06:43:36;;;;;;;13.25;2.75;;;;;;;8.33;88.42;100177.88;5075029;28;20539;-68
2023/03/25 06:46:02;;;;;;;10.55;2.67;;;;;;;8.42;88.32;100182.38;5075076;28;20457;-68
2023/03/25 06:48:27;;;;;;;6.93;2.30;;;;;;;8.53;87.96;100186.00;5074959;28;20025;-68
2023/03/25 06:50:53;;;;;;;6.88;2.38;;;;;;;8.64;87.88;100186.94;5056898;28;20067;-68
2023/03/25 06:53:18;;;;;;;9.98;2.35;;;;;;;8.72;86.79;100193.16;5074669;28;20108;-68
2023/03/25 06:55:43;;;;;;;11.65;2.65;;;;;;;8.75;86.82;100182.66;5074758;28;20056;-68
2023/03/25 06:58:10;;;;;;;8.00;2.20;;;;;;;8.77;86.43;100191.44;5074927;28;20029;-68
2023/03/25 07:00:36;;;;;;;9.68;2.45;;;;;;;8.73;86.99;100188.78;5074697;28;20563;-68
2023/03/25 07:03:01;;;;;;;8.63;2.33;;;;;;;8.72;87.40;100187.03;5073542;28;20493;-68
2023/03/25 07:05:27;;;;;;;8.32;2.58;;;;;;;8.73;86.10;100194.91;5074632;28;20035;-67
2023/03/25 07:07:52;;;;;;;9.80;3.03;;;;;;;8.78;86.03;100184.44;5074541;28;20024;-67
2023/03/25 07:10:20;;;;;;;14.63;2.65;;;;;;;8.89;85.61;100192.41;5074318;28;20043;-67
2023/03/25 07:12:49;;;;;;;11.23;2.70;;;;;;;8.93;86.30;100184.53;5074209;28;20493;-67
2023/03/25 07:15:14;;;;;;;18.60;2.70;;;;;;;8.94;86.58;100180.16;5074676;28;20033;-69
2023/03/25 07:17:41;;;;;;;13.13;2.45;;;;;;;8.94;86.11;100194.19;5074251;28;20546;-68
2023/03/25 07:20:08;;;;;;;10.93;2.72;;;;;;;8.95;85.54;100181.91;5074597;28;20082;-67
2023/03/25 07:22:33;;;;;;;8.63;2.50;;;;;;;8.91;87.27;100188.06;5056127;28;20560;-67
2023/03/25 07:24:59;;;;;;;11.73;2.70;;;;;;;8.98;86.82;100190.72;5074452;28;20032;-67
2023/03/25 07:27:25;;;;;;;12.85;2.50;;;;;;;9.06;87.12;100187.25;5074223;28;20025;-68
2023/03/25 07:29:51;;;;;;;7.90;2.55;;;;;;;9.09;86.95;100189.91;5074309;28;20020;-68
2023/03/25 07:32:16;;;;;;;11.40;2.90;;;;;;;9.06;87.04;100195.16;5074345;28;20064;-68
2023/03/25 07:34:42;;;;;;;12.80;2.90;;;;;;;9.05;87.38;100196.91;5074156;28;20017;-67
2023/03/25 07:37:07;;;;;;;11.13;2.88;;;;;;;8.99;88.28;100191.59;5073907;28;20373;-68
2023/03/25 07:39:33;;;;;;;15.30;2.90;;;;;;;8.96;88.51;100203.00;5073814;28;20040;-68
2023/03/25 07:41:58;;;;;;;9.10;2.47;;;;;;;8.91;88.69;100199.47;5073874;28;20025;-68
2023/03/25 07:44:24;;;;;;;12.30;3.80;;;;;;;8.88;88.33;100188.91;5073996;28;20103;-68
2023/03/25 07:46:49;;;;;;;9.93;2.30;;;;;;;8.84;88.64;100205.56;5073695;28;20031;-68
2023/03/25 07:49:16;;;;;;;14.43;3.00;;;;;;;8.80;88.91;100208.16;5073819;28;20032;-68
2023/03/25 07:51:43;;;;;;;12.57;2.63;;;;;;;8.74;89.99;100203.72;5073503;28;20126;-68
2023/03/25 07:54:08;;;;;;;13.00;2.75;;;;;;;8.74;89.90;100212.50;5073556;28;20028;-68
2023/03/25 07:56:34;;;;;;;16.88;3.17;;;;;;;8.72;90.53;100221.25;5073587;28;20029;-68
2023/03/25 07:59:00;;;;;;;12.20;2.35;;;;;;;8.71;91.01;100209.84;5073717;28;20024;-68
2023/03/25 08:01:25;;;;;;;13.40;3.28;;;;;;;8.67;91.39;100213.31;5073612;28;20029;-68
2023/03/25 08:03:51;;;;;;;16.48;2.63;;;;;;;8.71;90.55;100220.38;5055422;28;20470;-68
2023/03/25 08:06:16;;;;;;;14.60;3.15;;;;;;;8.73;91.22;100207.22;5073315;28;20032;-68
2023/03/25 08:08:42;;;;;;;10.82;2.53;;;;;;;8.82;90.59;100199.38;5073554;28;20058;-68
2023/03/25 08:11:07;;;;;;;15.25;2.95;;;;;;;8.94;90.19;100223.19;5073158;28;20074;-68
2023/03/25 08:13:33;;;;;;;17.83;3.30;;;;;;;9.09;90.22;100232.97;5055499;28;20470;-68
2023/03/25 08:15:58;;;;;;;14.98;2.88;;;;;;;9.25;88.77;100244.50;5072687;28;20033;-68
2023/03/25 08:18:24;;;;;;;8.20;2.50;;;;;;;9.34;88.71;100227.88;5073167;28;20028;-68
2023/03/25 08:20:50;;;;;;;13.13;2.72;;;;;;;9.41;89.48;100243.69;5073166;28;20129;-68
2023/03/25 08:23:18;;;;;;;12.73;3.20;;;;;;;9.45;88.56;100236.69;5072989;28;20513;-68
2023/03/25 08:25:47;;;;;;;15.68;3.15;;;;;;;9.45;89.67;100239.31;5055190;28;20392;-68
2023/03/25 08:28:16;;;;;;;10.38;2.40;;;;;;;9.49;89.66;100246.38;5073405;28;20036;-68
2023/03/25 08:30:42;;;;;;;9.23;2.85;;;;;;;9.50;88.75;100250.78;5072983;28;20033;-68
2023/03/25 08:33:09;;;;;;;9.00;2.67;;;;;;;9.46;88.61;100255.19;5072950;28;20381;-68
2023/03/25 08:35:36;;;;;;;8.68;3.00;;;;;;;9.36;89.82;100252.47;5072999;28;20029;-68
2023/03/25 08:38:04;;;;;;;13.82;2.90;;;;;;;9.29;90.80;100259.44;5073244;28;20109;-69
2023/03/25 08:40:38;;;;;;;14.63;3.58;;;;;;;9.23;91.83;100260.28;5072803;28;20476;-69
2023/03/25 08:43:05;;;;;;;10.85;2.83;;;;;;;9.23;92.38;100248.88;5073271;28;20032;-68
2023/03/25 08:45:31;;;;;;;13.02;2.95;;;;;;;9.20;91.86;100285.75;5072940;28;20024;-69
2023/03/25 08:47:57;;;;;;;21.00;2.97;;;;;;;9.17;93.20;100260.25;5072782;28;20071;-68
2023/03/25 08:50:22;;;;;;;14.15;3.00;;;;;;;9.21;94.06;100256.78;5072938;28;20048;-68
2023/03/25 08:52:48;;;;;;;16.85;3.05;;;;;;;9.20;93.66;100251.47;5072496;28;20389;-68
2023/03/25 08:55:14;;;;;;;13.23;3.53;;;;;;;9.22;93.78;100248.00;5072834;28;20024;-68
2023/03/25 08:57:41;;;;;;;12.63;3.05;;;;;;;9.24;94.22;100266.44;5072925;28;20048;-68
2023/03/25 09:00:13;;;;;;;14.57;3.25;;;;;;;9.34;94.04;100256.88;5072770;28;20044;-68
2023/03/25 09:02:41;;;;;;;12.65;3.17;;;;;;;9.61;93.74;100261.41;5072770;28;20056;-68
2023/03/25 09:05:09;;;;;;;19.48;3.47;;;;;;;9.90;93.80;100257.16;5072633;28;20067;-68
2023/03/25 09:07:35;;;;;;;13.02;3.00;;;;;;;10.02;91.20;100238.72;5072680;28;20020;-68
2023/03/25 09:10:01;;;;;;;16.05;3.33;;;;;;;10.20;91.56;100250.22;5072603;28;20027;-68
2023/03/25 09:12:27;;;;;;;16.83;3.58;;;;;;;10.52;90.02;100242.38;5072647;28;20029;-67
2023/03/25 09:14:52;;;;;;;12.70;2.85;;;;;;;10.78;89.07;100259.13;5072637;28;20032;-67
2023/03/25 09:17:17;;;;;;;13.98;3.10;;;;;;;11.11;87.98;100248.53;5072709;28;20492;-67
2023/03/25 09:19:43;;;;;;;15.90;3.53;;;;;;;11.33;85.33;100237.03;5072644;28;20115;-67
2023/03/25 09:22:08;;;;;;;14.82;3.70;;;;;;;11.50;85.71;100245.81;5072647;28;20024;-67
2023/03/25 09:24:34;;;;;;;19.13;4.20;;;;;;;11.61;83.17;100248.44;5072399;28;20062;-67
2023/03/25 09:27:01;;;;;;;14.18;3.35;;;;;;;11.78;82.47;100238.69;5075257;28;20033;-67
2023/03/25 09:29:27;;;;;;;12.50;3.72;;;;;;;11.93;81.21;100236.88;5076718;28;20035;-67
2023/03/25 09:31:57;;;;;;;15.93;3.80;;;;;;;12.10;81.67;100242.97;5076431;28;20103;-67
2023/03/25 09:34:23;;;;;;;15.88;3.35;;;;;;;12.23;79.29;100257.03;5076548;28;20037;-64
2023/03/25 09:36:48;;;;;;;14.95;3.17;;;;;;;12.38;78.77;100249.00;5076751;28;20020;-65
2023/03/25 09:39:14;;;;;;;17.55;3.63;;;;;;;12.38;77.56;100242.81;5077501;28;20024;-65
2023/03/25 09:41:45;;;;;;;12.80;3.17;;;;;;;12.25;77.68;100248.19;5077369;28;20052;-66
2023/03/25 09:44:47;;;;;;;15.60;3.53;;;;;;;12.20;78.58;100254.38;5076172;28;20025;-66
2023/03/25 09:47:13;;;;;;;13.65;2.90;;;;;;;12.14;79.41;100265.03;5076103;28;20020;-66
2023/03/25 09:49:42;;;;;;;13.38;3.40;;;;;;;12.02;77.00;100258.88;5076333;28;20032;-65
2023/03/25 09:52:17;;;;;;;15.07;3.42;;;;;;;11.89;78.85;100259.84;5075779;28;20024;-66
2023/03/25 09:54:53;;;;;;;13.40;3.05;;;;;;;11.88;78.85;100257.19;5075833;28;20389;-66
2023/03/25 09:57:25;;;;;;;17.10;3.42;;;;;;;11.95;78.58;100274.84;5076060;28;20483;-66
2023/03/25 09:59:51;;;;;;;14.95;3.65;;;;;;;12.05;78.41;100257.13;5058058;28;20178;-66
2023/03/25 10:02:34;;;;;;;14.85;3.60;;;;;;;12.14;77.33;100260.59;5075925;28;20056;-66
2023/03/25 10:05:27;;;;;;;16.08;3.60;;;;;;;12.41;77.01;100256.03;5075986;28;20036;-66
2023/03/25 10:07:52;;;;;;;14.23;3.80;;;;;;;12.62;75.65;100276.22;5075859;28;20020;-66
2023/03/25 10:10:31;;;;;;;11.10;3.13;;;;;;;12.66;74.21;100275.31;5057464;28;20078;-66
2023/03/25 10:13:15;;;;;;;15.90;3.35;;;;;;;12.72;75.88;100267.34;5058526;28;20032;-66
2023/03/25 10:15:58;;;;;;;15.48;3.70;;;;;;;12.60;75.36;100265.63;5075481;28;20480;-67
2023/03/25 10:18:42;;;;;;;14.88;3.30;;;;;;;12.39;74.80;100271.06;5075414;28;20031;-66
2023/03/25 10:21:34;;;;;;;19.05;3.65;;;;;;;12.36;77.02;100255.19;5075768;28;20037;-67
2023/03/25 10:23:59;;;;;;;12.88;3.35;;;;;;;12.44;75.69;100262.19;5070069;28;20037;-67
2023/03/25 10:26:35;;;;;;;15.25;3.65;;;;;;;12.51;75.46;100263.06;5075367;28;20019;-67
2023/03/25 10:29:09;;;;;;;15.80;4.00;;;;;;;12.44;74.77;100261.31;5075313;28;20035;-67
2023/03/25 10:31:38;;;;;;;14.88;3.58;;;;;;;12.43;77.92;100257.78;5075635;28;20035;-67
2023/03/25 10:34:15;;;;;;;15.88;3.55;;;;;;;12.34;76.59;100257.84;5075300;28;20043;-67
2023/03/25 10:36:57;;;;;;;14.80;3.10;;;;;;;12.24;75.68;100257.00;5075092;28;20040;-66
2023/03/25 10:39:32;;;;;;;12.00;3.40;;;;;;;12.05;75.13;100265.94;5075318;28;20119;-67
2023/03/25 10:42:03;;;;;;;16.17;3.97;;;;;;;12.00;75.41;100278.34;5075479;28;20035;-67
2023/03/25 10:44:29;;;;;;;17.23;3.92;;;;;;;11.93;74.96;100276.59;5075366;28;20036;-67
2023/03/25 10:47:05;;;;;;;15.23;3.67;;;;;;;11.86;76.67;100267.81;5075133;28;20503;-67
2023/03/25 10:49:35;;;;;;;14.07;3.40;;;;;;;11.83;78.93;100267.81;5074956;28;20470;-67
2023/03/25 10:52:01;;;;;;;21.25;3.60;;;;;;;11.83;76.70;100270.47;5074648;28;20485;-67
2023/03/25 10:54:35;;;;;;;13.00;3.45;;;;;;;11.83;76.53;100291.63;5056950;28;20086;-67
2023/03/25 10:57:07;;;;;;;15.30;3.78;;;;;;;11.82;74.34;100278.34;5074759;28;20461;-67
2023/03/25 10:59:57;;;;;;;15.27;3.13;;;;;;;11.86;74.88;100291.63;5074851;28;20081;-67
2023/03/25 11:02:25;;;;;;;15.90;3.40;;;;;;;11.97;73.13;100286.28;5074654;28;20082;-67
2023/03/25 11:04:57;;;;;;;10.05;2.97;;;;;;;12.07;70.90;100272.09;5074544;28;20086;-67
2023/03/25 11:07:31;;;;;;;16.30;2.90;;;;;;;12.20;68.61;100275.56;5074973;28;20024;-68
2023/03/25 11:10:22;;;;;;;11.77;2.75;;;;;;;12.51;70.51;100276.31;5074395;28;20044;-67
2023/03/25 11:12:50;;;;;;;13.82;2.83;;;;;;;12.81;68.09;100287.59;5074493;28;20119;-67
2023/03/25 11:15:29;;;;;;;14.77;3.28;;;;;;;12.93;68.71;100283.06;5074751;28;20032;-67
2023/03/25 11:17:59;;;;;;;11.05;2.85;;;;;;;12.95;66.97;100294.53;5074428;28;20028;-67
2023/03/25 11:20:29;;;;;;;12.85;2.80;;;;;;;12.97;64.66;100295.38;5074370;28;20067;-67
2023/03/25 11:23:02;;;;;;;16.17;3.15;;;;;;;12.97;64.77;100283.91;5074334;28;20029;-67
2023/03/25 11:25:36;;;;;;;13.30;2.50;;;;;;;13.02;64.63;100304.22;5074306;28;20029;-67
2023/03/25 11:28:08;;;;;;;10.95;2.80;;;;;;;13.07;63.50;100296.22;5074185;28;20469;-67
2023/03/25 11:30:34;;;;;;;12.07;2.30;;;;;;;13.03;64.51;100290.06;5074419;28;20381;-67
2023/03/25 11:33:06;;;;;;;11.13;2.58;;;;;;;13.04;62.74;100298.88;5074042;28;20024;-67
2023/03/25 11:35:41;;;;;;;13.70;2.50;;;;;;;12.97;63.61;100302.47;5074161;28;20485;-68
2023/03/25 11:38:36;;;;;;;9.55;2.63;;;;;;;13.03;65.10;100299.78;5074023;28;20494;-68
2023/03/25 11:41:02;;;;;;;8.55;2.38;;;;;;;13.14;63.08;100297.91;5072063;28;20040;-68